sensor_id;sensor_type;location;lat;lon;timestamp;P1;durP1;ratioP1;P2;durP2;ratioP2
7707;SDS011;3896;48.758;8.888;2023-02-21T00:02:13;2.50;;;1.43;;
7707;SDS011;3896;48.758;8.888;2023-02-21T00:04:57;3.03;;;1.47;;
7707;SDS011;3896;48.758;8.888;2023-02-21T00:07:41;3.33;;;1.30;;
7707;SDS011;3896;48.758;8.888;2023-02-21T00:10:26;2.00;;;1.77;;
7707;SDS011;3896;48.758;8.888;2023-02-21T00:13:10;1.77;;;1.40;;
7707;SDS011;3896;48.758;8.888;2023-02-21T00:15:55;1.83;;;1.50;;
7707;SDS011;3896;48.758;8.888;2023-02-21T00:18:40;1.73;;;1.40;;
7707;SDS011;3896;48.758;8.888;2023-02-21T00:21:26;1.60;;;1.50;;
7707;SDS011;3896;48.758;8.888;2023-02-21T00:24:12;1.13;;;1.00;;
7707;SDS011;3896;48.758;8.888;2023-02-21T00:27:00;1.60;;;1.50;;
7707;SDS011;3896;48.758;8.888;2023-02-21T00:29:48;1.63;;;1.43;;
7707;SDS011;3896;48.758;8.888;2023-02-21T00:32:33;2.53;;;2.00;;
7707;SDS011;3896;48.758;8.888;2023-02-21T00:35:17;1.33;;;1.23;;
7707;SDS011;3896;48.758;8.888;2023-02-21T00:38:02;2.50;;;1.60;;
7707;SDS011;3896;48.758;8.888;2023-02-21T00:40:47;1.63;;;1.40;;
7707;SDS011;3896;48.758;8.888;2023-02-21T00:43:31;3.33;;;1.80;;
7707;SDS011;3896;48.758;8.888;2023-02-21T00:46:17;4.30;;;1.90;;
7707;SDS011;3896;48.758;8.888;2023-02-21T00:49:02;2.33;;;1.80;;
7707;SDS011;3896;48.758;8.888;2023-02-21T00:51:46;2.80;;;1.97;;
7707;SDS011;3896;48.758;8.888;2023-02-21T00:54:31;1.60;;;1.50;;
7707;SDS011;3896;48.758;8.888;2023-02-21T00:57:16;2.07;;;1.47;;
7707;SDS011;3896;48.758;8.888;2023-02-21T01:00:00;1.80;;;1.70;;
7707;SDS011;3896;48.758;8.888;2023-02-21T01:02:45;1.60;;;1.33;;
7707;SDS011;3896;48.758;8.888;2023-02-21T01:05:28;1.73;;;1.63;;
7707;SDS011;3896;48.758;8.888;2023-02-21T01:08:13;4.93;;;1.83;;
7707;SDS011;3896;48.758;8.888;2023-02-21T01:10:57;3.70;;;1.40;;
7707;SDS011;3896;48.758;8.888;2023-02-21T01:13:41;1.70;;;1.47;;
7707;SDS011;3896;48.758;8.888;2023-02-21T01:16:29;4.10;;;2.10;;
7707;SDS011;3896;48.758;8.888;2023-02-21T01:19:14;2.60;;;1.87;;
7707;SDS011;3896;48.758;8.888;2023-02-21T01:21:58;2.07;;;1.40;;
7707;SDS011;3896;48.758;8.888;2023-02-21T01:24:43;4.00;;;2.23;;
7707;SDS011;3896;48.758;8.888;2023-02-21T01:27:27;2.60;;;1.90;;
7707;SDS011;3896;48.758;8.888;2023-02-21T01:30:11;1.57;;;1.47;;
7707;SDS011;3896;48.758;8.888;2023-02-21T01:32:56;1.70;;;1.60;;
7707;SDS011;3896;48.758;8.888;2023-02-21T01:35:40;4.33;;;1.90;;
7707;SDS011;3896;48.758;8.888;2023-02-21T01:38:24;4.80;;;1.73;;
7707;SDS011;3896;48.758;8.888;2023-02-21T01:41:08;2.30;;;1.87;;
7707;SDS011;3896;48.758;8.888;2023-02-21T01:44:00;1.80;;;1.57;;
7707;SDS011;3896;48.758;8.888;2023-02-21T01:46:46;1.87;;;1.77;;
7707;SDS011;3896;48.758;8.888;2023-02-21T01:49:31;1.80;;;1.70;;
7707;SDS011;3896;48.758;8.888;2023-02-21T01:52:18;2.83;;;1.70;;
7707;SDS011;3896;48.758;8.888;2023-02-21T01:55:03;4.83;;;1.60;;
7707;SDS011;3896;48.758;8.888;2023-02-21T01:57:49;3.03;;;2.07;;
7707;SDS011;3896;48.758;8.888;2023-02-21T02:00:34;2.33;;;1.90;;
7707;SDS011;3896;48.758;8.888;2023-02-21T02:03:19;2.23;;;1.87;;
7707;SDS011;3896;48.758;8.888;2023-02-21T02:06:07;2.20;;;2.07;;
7707;SDS011;3896;48.758;8.888;2023-02-21T02:08:52;3.77;;;2.20;;
7707;SDS011;3896;48.758;8.888;2023-02-21T02:17:39;4.00;;;2.60;;
7707;SDS011;3896;48.758;8.888;2023-02-21T02:34:51;2.50;;;2.00;;
7707;SDS011;3896;48.758;8.888;2023-02-21T02:45:50;2.40;;;2.00;;
7707;SDS011;3896;48.758;8.888;2023-02-21T02:48:29;6.60;;;3.93;;
7707;SDS011;3896;48.758;8.888;2023-02-21T02:50:57;3.33;;;2.50;;
7707;SDS011;3896;48.758;8.888;2023-02-21T02:53:27;3.57;;;2.50;;
7707;SDS011;3896;48.758;8.888;2023-02-21T02:55:58;3.03;;;2.73;;
7707;SDS011;3896;48.758;8.888;2023-02-21T02:58:30;4.73;;;3.30;;
7707;SDS011;3896;48.758;8.888;2023-02-21T03:01:06;5.60;;;3.23;;
7707;SDS011;3896;48.758;8.888;2023-02-21T03:07:10;6.37;;;2.87;;
7707;SDS011;3896;48.758;8.888;2023-02-21T03:10:00;3.53;;;2.20;;
7707;SDS011;3896;48.758;8.888;2023-02-21T03:12:53;2.17;;;1.97;;
7707;SDS011;3896;48.758;8.888;2023-02-21T03:15:29;6.83;;;3.07;;
7707;SDS011;3896;48.758;8.888;2023-02-21T03:18:11;4.00;;;2.30;;
7707;SDS011;3896;48.758;8.888;2023-02-21T03:20:58;3.63;;;2.73;;
7707;SDS011;3896;48.758;8.888;2023-02-21T03:23:26;4.00;;;2.93;;
7707;SDS011;3896;48.758;8.888;2023-02-21T03:25:55;5.53;;;2.90;;
7707;SDS011;3896;48.758;8.888;2023-02-21T03:28:24;3.87;;;2.33;;
7707;SDS011;3896;48.758;8.888;2023-02-21T03:30:50;5.17;;;3.33;;
7707;SDS011;3896;48.758;8.888;2023-02-21T03:33:19;4.50;;;3.20;;
7707;SDS011;3896;48.758;8.888;2023-02-21T03:35:45;4.70;;;2.93;;
7707;SDS011;3896;48.758;8.888;2023-02-21T03:38:12;3.67;;;2.57;;
7707;SDS011;3896;48.758;8.888;2023-02-21T03:40:37;3.13;;;2.53;;
7707;SDS011;3896;48.758;8.888;2023-02-21T03:43:03;4.97;;;2.57;;
7707;SDS011;3896;48.758;8.888;2023-02-21T03:45:33;3.50;;;2.57;;
7707;SDS011;3896;48.758;8.888;2023-02-21T03:47:59;2.83;;;2.63;;
7707;SDS011;3896;48.758;8.888;2023-02-21T03:50:25;4.67;;;3.07;;
7707;SDS011;3896;48.758;8.888;2023-02-21T03:52:51;4.50;;;2.67;;
7707;SDS011;3896;48.758;8.888;2023-02-21T03:55:16;4.33;;;2.53;;
7707;SDS011;3896;48.758;8.888;2023-02-21T03:57:42;3.00;;;2.73;;
7707;SDS011;3896;48.758;8.888;2023-02-21T04:00:07;4.67;;;2.83;;
7707;SDS011;3896;48.758;8.888;2023-02-21T04:02:34;4.00;;;2.40;;
7707;SDS011;3896;48.758;8.888;2023-02-21T04:05:00;2.50;;;2.13;;
7707;SDS011;3896;48.758;8.888;2023-02-21T04:07:25;2.93;;;2.53;;
7707;SDS011;3896;48.758;8.888;2023-02-21T04:09:51;4.57;;;2.50;;
7707;SDS011;3896;48.758;8.888;2023-02-21T04:12:17;3.37;;;2.70;;
7707;SDS011;3896;48.758;8.888;2023-02-21T04:14:42;3.87;;;3.10;;
7707;SDS011;3896;48.758;8.888;2023-02-21T04:17:08;3.30;;;2.50;;
7707;SDS011;3896;48.758;8.888;2023-02-21T04:19:34;4.00;;;2.70;;
7707;SDS011;3896;48.758;8.888;2023-02-21T04:21:59;5.40;;;2.63;;
7707;SDS011;3896;48.758;8.888;2023-02-21T04:24:25;5.10;;;2.60;;
7707;SDS011;3896;48.758;8.888;2023-02-21T04:26:51;4.43;;;2.53;;
7707;SDS011;3896;48.758;8.888;2023-02-21T04:29:16;3.77;;;2.50;;
7707;SDS011;3896;48.758;8.888;2023-02-21T04:31:43;5.50;;;2.67;;
7707;SDS011;3896;48.758;8.888;2023-02-21T04:34:08;2.77;;;2.40;;
7707;SDS011;3896;48.758;8.888;2023-02-21T04:36:34;4.63;;;2.87;;
7707;SDS011;3896;48.758;8.888;2023-02-21T04:39:01;4.23;;;2.43;;
7707;SDS011;3896;48.758;8.888;2023-02-21T04:41:27;2.47;;;2.27;;
7707;SDS011;3896;48.758;8.888;2023-02-21T04:43:52;3.60;;;2.50;;
7707;SDS011;3896;48.758;8.888;2023-02-21T04:46:18;2.47;;;2.00;;
7707;SDS011;3896;48.758;8.888;2023-02-21T04:48:44;4.50;;;2.17;;
7707;SDS011;3896;48.758;8.888;2023-02-21T04:51:12;2.20;;;2.00;;
7707;SDS011;3896;48.758;8.888;2023-02-21T04:53:39;3.53;;;2.57;;
7707;SDS011;3896;48.758;8.888;2023-02-21T04:56:05;2.67;;;2.03;;
7707;SDS011;3896;48.758;8.888;2023-02-21T04:58:31;2.23;;;1.90;;
7707;SDS011;3896;48.758;8.888;2023-02-21T05:00:57;3.07;;;2.10;;
7707;SDS011;3896;48.758;8.888;2023-02-21T05:03:22;3.30;;;2.27;;
7707;SDS011;3896;48.758;8.888;2023-02-21T05:05:48;2.17;;;1.97;;
7707;SDS011;3896;48.758;8.888;2023-02-21T05:08:14;2.33;;;2.13;;
7707;SDS011;3896;48.758;8.888;2023-02-21T05:10:40;2.27;;;2.03;;
7707;SDS011;3896;48.758;8.888;2023-02-21T05:13:05;2.97;;;2.00;;
7707;SDS011;3896;48.758;8.888;2023-02-21T05:15:31;2.57;;;1.70;;
7707;SDS011;3896;48.758;8.888;2023-02-21T05:17:56;3.27;;;2.10;;
7707;SDS011;3896;48.758;8.888;2023-02-21T05:20:22;2.70;;;1.73;;
7707;SDS011;3896;48.758;8.888;2023-02-21T05:22:48;2.93;;;2.57;;
7707;SDS011;3896;48.758;8.888;2023-02-21T05:25:15;1.93;;;1.57;;
7707;SDS011;3896;48.758;8.888;2023-02-21T05:27:42;1.60;;;1.50;;
7707;SDS011;3896;48.758;8.888;2023-02-21T05:30:08;2.50;;;1.93;;
7707;SDS011;3896;48.758;8.888;2023-02-21T05:32:35;2.70;;;1.70;;
7707;SDS011;3896;48.758;8.888;2023-02-21T05:35:00;3.50;;;1.70;;
7707;SDS011;3896;48.758;8.888;2023-02-21T05:37:26;2.13;;;1.40;;
7707;SDS011;3896;48.758;8.888;2023-02-21T05:39:51;3.03;;;1.40;;
7707;SDS011;3896;48.758;8.888;2023-02-21T05:42:17;2.60;;;1.60;;
7707;SDS011;3896;48.758;8.888;2023-02-21T05:44:43;2.47;;;1.83;;
7707;SDS011;3896;48.758;8.888;2023-02-21T05:47:11;2.50;;;2.10;;
7707;SDS011;3896;48.758;8.888;2023-02-21T05:49:37;1.60;;;1.50;;
7707;SDS011;3896;48.758;8.888;2023-02-21T05:52:03;1.70;;;1.60;;
7707;SDS011;3896;48.758;8.888;2023-02-21T05:54:29;2.90;;;1.70;;
7707;SDS011;3896;48.758;8.888;2023-02-21T05:56:54;1.97;;;1.60;;
7707;SDS011;3896;48.758;8.888;2023-02-21T05:59:20;3.93;;;1.67;;
7707;SDS011;3896;48.758;8.888;2023-02-21T06:01:46;1.70;;;1.53;;
7707;SDS011;3896;48.758;8.888;2023-02-21T06:04:12;1.73;;;1.53;;
7707;SDS011;3896;48.758;8.888;2023-02-21T06:06:38;1.53;;;1.37;;
7707;SDS011;3896;48.758;8.888;2023-02-21T06:09:04;2.17;;;1.60;;
7707;SDS011;3896;48.758;8.888;2023-02-21T06:11:31;2.37;;;1.60;;
7707;SDS011;3896;48.758;8.888;2023-02-21T06:13:59;1.43;;;1.33;;
7707;SDS011;3896;48.758;8.888;2023-02-21T06:16:30;2.47;;;1.50;;
7707;SDS011;3896;48.758;8.888;2023-02-21T06:19:00;1.30;;;1.20;;
7707;SDS011;3896;48.758;8.888;2023-02-21T06:21:26;3.93;;;2.10;;
7707;SDS011;3896;48.758;8.888;2023-02-21T06:23:52;3.87;;;2.00;;
7707;SDS011;3896;48.758;8.888;2023-02-21T06:26:18;5.53;;;2.57;;
7707;SDS011;3896;48.758;8.888;2023-02-21T06:28:45;4.67;;;2.00;;
7707;SDS011;3896;48.758;8.888;2023-02-21T06:31:11;4.50;;;1.70;;
7707;SDS011;3896;48.758;8.888;2023-02-21T06:33:37;2.70;;;1.93;;
7707;SDS011;3896;48.758;8.888;2023-02-21T06:36:03;2.57;;;1.83;;
7707;SDS011;3896;48.758;8.888;2023-02-21T06:38:34;3.20;;;1.70;;
7707;SDS011;3896;48.758;8.888;2023-02-21T06:41:04;1.67;;;1.57;;
7707;SDS011;3896;48.758;8.888;2023-02-21T06:43:30;1.70;;;1.60;;
7707;SDS011;3896;48.758;8.888;2023-02-21T06:45:56;3.73;;;1.40;;
7707;SDS011;3896;48.758;8.888;2023-02-21T06:48:21;2.10;;;1.63;;
7707;SDS011;3896;48.758;8.888;2023-02-21T06:50:47;3.07;;;1.90;;
7707;SDS011;3896;48.758;8.888;2023-02-21T06:53:13;1.97;;;1.70;;
7707;SDS011;3896;48.758;8.888;2023-02-21T06:55:39;1.97;;;1.73;;
7707;SDS011;3896;48.758;8.888;2023-02-21T06:58:04;2.07;;;1.80;;
7707;SDS011;3896;48.758;8.888;2023-02-21T07:00:30;3.67;;;1.73;;
7707;SDS011;3896;48.758;8.888;2023-02-21T07:02:56;1.97;;;1.80;;
7707;SDS011;3896;48.758;8.888;2023-02-21T07:05:21;1.47;;;1.37;;
7707;SDS011;3896;48.758;8.888;2023-02-21T07:07:47;3.50;;;1.70;;
7707;SDS011;3896;48.758;8.888;2023-02-21T07:10:12;1.40;;;1.30;;
7707;SDS011;3896;48.758;8.888;2023-02-21T07:12:38;2.27;;;1.57;;
7707;SDS011;3896;48.758;8.888;2023-02-21T07:15:04;4.13;;;1.70;;
7707;SDS011;3896;48.758;8.888;2023-02-21T07:17:30;2.47;;;2.10;;
7707;SDS011;3896;48.758;8.888;2023-02-21T07:19:56;1.90;;;1.73;;
7707;SDS011;3896;48.758;8.888;2023-02-21T07:22:22;5.67;;;2.87;;
7707;SDS011;3896;48.758;8.888;2023-02-21T07:24:50;7.90;;;3.03;;
7707;SDS011;3896;48.758;8.888;2023-02-21T07:27:20;5.80;;;4.50;;
7707;SDS011;3896;48.758;8.888;2023-02-21T07:29:49;5.87;;;4.50;;
7707;SDS011;3896;48.758;8.888;2023-02-21T07:32:15;6.13;;;4.20;;
7707;SDS011;3896;48.758;8.888;2023-02-21T07:34:41;4.70;;;3.60;;
7707;SDS011;3896;48.758;8.888;2023-02-21T07:37:07;4.10;;;3.43;;
7707;SDS011;3896;48.758;8.888;2023-02-21T07:39:34;5.07;;;3.90;;
7707;SDS011;3896;48.758;8.888;2023-02-21T07:41:59;5.40;;;3.70;;
7707;SDS011;3896;48.758;8.888;2023-02-21T07:44:25;6.87;;;4.20;;
7707;SDS011;3896;48.758;8.888;2023-02-21T07:46:50;4.70;;;3.90;;
7707;SDS011;3896;48.758;8.888;2023-02-21T07:49:16;5.93;;;4.60;;
7707;SDS011;3896;48.758;8.888;2023-02-21T07:51:41;6.77;;;4.87;;
7707;SDS011;3896;48.758;8.888;2023-02-21T07:54:07;6.80;;;3.77;;
7707;SDS011;3896;48.758;8.888;2023-02-21T07:56:33;8.20;;;4.00;;
7707;SDS011;3896;48.758;8.888;2023-02-21T07:58:58;4.87;;;3.50;;
7707;SDS011;3896;48.758;8.888;2023-02-21T08:01:25;5.03;;;3.43;;
7707;SDS011;3896;48.758;8.888;2023-02-21T08:03:52;3.73;;;3.30;;
7707;SDS011;3896;48.758;8.888;2023-02-21T08:06:17;4.13;;;3.33;;
7707;SDS011;3896;48.758;8.888;2023-02-21T08:08:43;5.37;;;3.40;;
7707;SDS011;3896;48.758;8.888;2023-02-21T08:11:09;5.73;;;3.30;;
7707;SDS011;3896;48.758;8.888;2023-02-21T08:13:35;6.60;;;3.67;;
7707;SDS011;3896;48.758;8.888;2023-02-21T08:16:01;4.97;;;3.27;;
7707;SDS011;3896;48.758;8.888;2023-02-21T08:18:26;6.40;;;3.63;;
7707;SDS011;3896;48.758;8.888;2023-02-21T08:20:53;3.87;;;3.23;;
7707;SDS011;3896;48.758;8.888;2023-02-21T08:23:20;5.57;;;4.10;;
7707;SDS011;3896;48.758;8.888;2023-02-21T08:25:46;5.67;;;3.77;;
7707;SDS011;3896;48.758;8.888;2023-02-21T08:28:12;6.43;;;3.30;;
7707;SDS011;3896;48.758;8.888;2023-02-21T08:30:38;6.03;;;3.60;;
7707;SDS011;3896;48.758;8.888;2023-02-21T08:33:04;10.40;;;3.87;;
7707;SDS011;3896;48.758;8.888;2023-02-21T08:35:30;9.03;;;4.17;;
7707;SDS011;3896;48.758;8.888;2023-02-21T08:37:56;7.87;;;4.00;;
7707;SDS011;3896;48.758;8.888;2023-02-21T08:40:27;6.63;;;3.70;;
7707;SDS011;3896;48.758;8.888;2023-02-21T08:42:57;5.33;;;3.90;;
7707;SDS011;3896;48.758;8.888;2023-02-21T08:45:24;4.93;;;3.50;;
7707;SDS011;3896;48.758;8.888;2023-02-21T08:47:51;4.37;;;3.43;;
7707;SDS011;3896;48.758;8.888;2023-02-21T08:50:18;6.87;;;3.73;;
7707;SDS011;3896;48.758;8.888;2023-02-21T08:52:45;6.13;;;2.97;;
7707;SDS011;3896;48.758;8.888;2023-02-21T08:55:12;3.40;;;3.07;;
7707;SDS011;3896;48.758;8.888;2023-02-21T08:57:37;4.40;;;2.83;;
7707;SDS011;3896;48.758;8.888;2023-02-21T09:00:04;6.47;;;2.67;;
7707;SDS011;3896;48.758;8.888;2023-02-21T09:02:34;7.67;;;3.00;;
7707;SDS011;3896;48.758;8.888;2023-02-21T09:05:04;6.37;;;3.90;;
7707;SDS011;3896;48.758;8.888;2023-02-21T09:07:37;6.27;;;3.80;;
7707;SDS011;3896;48.758;8.888;2023-02-21T09:10:03;7.37;;;4.43;;
7707;SDS011;3896;48.758;8.888;2023-02-21T09:12:30;5.97;;;4.00;;
7707;SDS011;3896;48.758;8.888;2023-02-21T09:14:55;7.43;;;3.50;;
7707;SDS011;3896;48.758;8.888;2023-02-21T09:17:21;7.70;;;3.80;;
7707;SDS011;3896;48.758;8.888;2023-02-21T09:19:46;8.10;;;3.13;;
7707;SDS011;3896;48.758;8.888;2023-02-21T09:22:12;6.57;;;3.50;;
7707;SDS011;3896;48.758;8.888;2023-02-21T09:24:38;3.77;;;3.30;;
7707;SDS011;3896;48.758;8.888;2023-02-21T09:27:03;5.37;;;3.17;;
7707;SDS011;3896;48.758;8.888;2023-02-21T09:29:31;5.37;;;3.23;;
7707;SDS011;3896;48.758;8.888;2023-02-21T09:31:58;9.23;;;3.33;;
7707;SDS011;3896;48.758;8.888;2023-02-21T09:34:25;6.87;;;3.13;;
7707;SDS011;3896;48.758;8.888;2023-02-21T09:36:52;5.90;;;3.23;;
7707;SDS011;3896;48.758;8.888;2023-02-21T09:39:21;2.93;;;2.47;;
7707;SDS011;3896;48.758;8.888;2023-02-21T09:41:47;4.53;;;2.43;;
7707;SDS011;3896;48.758;8.888;2023-02-21T09:44:17;2.60;;;2.30;;
7707;SDS011;3896;48.758;8.888;2023-02-21T09:46:48;2.90;;;1.60;;
7707;SDS011;3896;48.758;8.888;2023-02-21T09:49:24;3.83;;;1.77;;
7707;SDS011;3896;48.758;8.888;2023-02-21T09:51:51;2.20;;;1.43;;
7707;SDS011;3896;48.758;8.888;2023-02-21T09:54:31;1.73;;;1.60;;
7707;SDS011;3896;48.758;8.888;2023-02-21T09:57:03;3.67;;;1.73;;
7707;SDS011;3896;48.758;8.888;2023-02-21T09:59:34;1.70;;;1.50;;
7707;SDS011;3896;48.758;8.888;2023-02-21T10:04:52;2.20;;;1.70;;
7707;SDS011;3896;48.758;8.888;2023-02-21T10:10:15;3.03;;;1.90;;
7707;SDS011;3896;48.758;8.888;2023-02-21T10:12:53;2.73;;;1.83;;
7707;SDS011;3896;48.758;8.888;2023-02-21T10:15:34;3.83;;;1.90;;
7707;SDS011;3896;48.758;8.888;2023-02-21T10:24:25;2.33;;;1.40;;
7707;SDS011;3896;48.758;8.888;2023-02-21T10:27:00;1.70;;;0.97;;
7707;SDS011;3896;48.758;8.888;2023-02-21T10:32:19;0.70;;;0.70;;
7707;SDS011;3896;48.758;8.888;2023-02-21T10:34:46;1.03;;;0.60;;
7707;SDS011;3896;48.758;8.888;2023-02-21T10:39:53;1.13;;;0.90;;
7707;SDS011;3896;48.758;8.888;2023-02-21T10:42:27;0.40;;;0.40;;
7707;SDS011;3896;48.758;8.888;2023-02-21T10:45:00;0.70;;;0.70;;
7707;SDS011;3896;48.758;8.888;2023-02-21T10:48:09;0.80;;;0.50;;
7707;SDS011;3896;48.758;8.888;2023-02-21T10:50:36;1.37;;;0.60;;
7707;SDS011;3896;48.758;8.888;2023-02-21T10:53:30;2.93;;;0.73;;
7707;SDS011;3896;48.758;8.888;2023-02-21T10:58:44;1.47;;;0.50;;
7707;SDS011;3896;48.758;8.888;2023-02-21T11:01:11;6.00;;;1.07;;
7707;SDS011;3896;48.758;8.888;2023-02-21T11:03:50;0.80;;;0.80;;
7707;SDS011;3896;48.758;8.888;2023-02-21T11:06:23;1.40;;;1.07;;
7707;SDS011;3896;48.758;8.888;2023-02-21T11:08:54;1.03;;;0.93;;
7707;SDS011;3896;48.758;8.888;2023-02-21T11:11:30;5.47;;;1.00;;
7707;SDS011;3896;48.758;8.888;2023-02-21T11:14:23;2.23;;;1.10;;
7707;SDS011;3896;48.758;8.888;2023-02-21T11:19:58;1.23;;;1.00;;
7707;SDS011;3896;48.758;8.888;2023-02-21T11:22:42;1.53;;;1.30;;
7707;SDS011;3896;48.758;8.888;2023-02-21T11:30:38;1.23;;;0.67;;
7707;SDS011;3896;48.758;8.888;2023-02-21T11:33:09;1.17;;;1.03;;
7707;SDS011;3896;48.758;8.888;2023-02-21T11:35:51;0.80;;;0.80;;
7707;SDS011;3896;48.758;8.888;2023-02-21T11:38:32;0.60;;;0.60;;
7707;SDS011;3896;48.758;8.888;2023-02-21T11:41:03;3.37;;;0.80;;
7707;SDS011;3896;48.758;8.888;2023-02-21T11:43:44;0.60;;;0.57;;
7707;SDS011;3896;48.758;8.888;2023-02-21T11:54:13;2.20;;;0.90;;
7707;SDS011;3896;48.758;8.888;2023-02-21T11:57:01;2.33;;;0.80;;
7707;SDS011;3896;48.758;8.888;2023-02-21T11:59:45;0.70;;;0.70;;
7707;SDS011;3896;48.758;8.888;2023-02-21T12:16:10;0.47;;;0.47;;
7707;SDS011;3896;48.758;8.888;2023-02-21T12:24:24;0.80;;;0.80;;
7707;SDS011;3896;48.758;8.888;2023-02-21T12:26:57;0.63;;;0.53;;
7707;SDS011;3896;48.758;8.888;2023-02-21T12:35:21;0.60;;;0.50;;
7707;SDS011;3896;48.758;8.888;2023-02-21T12:40:13;0.50;;;0.50;;
7707;SDS011;3896;48.758;8.888;2023-02-21T12:42:47;0.40;;;0.37;;
7707;SDS011;3896;48.758;8.888;2023-02-21T12:50:42;0.33;;;0.30;;
7707;SDS011;3896;48.758;8.888;2023-02-21T12:53:17;0.40;;;0.40;;
7707;SDS011;3896;48.758;8.888;2023-02-21T12:55:54;1.70;;;0.67;;
7707;SDS011;3896;48.758;8.888;2023-02-21T12:58:33;0.47;;;0.47;;
7707;SDS011;3896;48.758;8.888;2023-02-21T13:01:23;0.63;;;0.47;;
7707;SDS011;3896;48.758;8.888;2023-02-21T13:03:54;0.20;;;0.20;;
7707;SDS011;3896;48.758;8.888;2023-02-21T13:06:25;0.50;;;0.50;;
7707;SDS011;3896;48.758;8.888;2023-02-21T13:09:07;0.60;;;0.60;;
7707;SDS011;3896;48.758;8.888;2023-02-21T13:11:41;1.23;;;0.67;;
7707;SDS011;3896;48.758;8.888;2023-02-21T13:14:53;0.30;;;0.27;;
7707;SDS011;3896;48.758;8.888;2023-02-21T13:17:17;0.73;;;0.60;;
7707;SDS011;3896;48.758;8.888;2023-02-21T13:22:16;0.70;;;0.63;;
7707;SDS011;3896;48.758;8.888;2023-02-21T13:25:13;2.73;;;0.50;;
7707;SDS011;3896;48.758;8.888;2023-02-21T13:32:55;0.40;;;0.40;;
7707;SDS011;3896;48.758;8.888;2023-02-21T13:35:25;0.60;;;0.60;;
7707;SDS011;3896;48.758;8.888;2023-02-21T13:37:54;0.53;;;0.53;;
7707;SDS011;3896;48.758;8.888;2023-02-21T13:40:25;1.60;;;0.50;;
7707;SDS011;3896;48.758;8.888;2023-02-21T13:43:05;2.83;;;0.63;;
7707;SDS011;3896;48.758;8.888;2023-02-21T13:45:37;1.60;;;0.50;;
7707;SDS011;3896;48.758;8.888;2023-02-21T13:55:49;3.70;;;0.57;;
7707;SDS011;3896;48.758;8.888;2023-02-21T13:58:41;0.40;;;0.37;;
7707;SDS011;3896;48.758;8.888;2023-02-21T14:03:38;1.03;;;0.50;;
7707;SDS011;3896;48.758;8.888;2023-02-21T14:08:48;0.40;;;0.40;;
7707;SDS011;3896;48.758;8.888;2023-02-21T14:11:21;1.80;;;0.60;;
7707;SDS011;3896;48.758;8.888;2023-02-21T14:14:27;1.53;;;0.57;;
7707;SDS011;3896;48.758;8.888;2023-02-21T14:22:11;0.70;;;0.60;;
7707;SDS011;3896;48.758;8.888;2023-02-21T14:24:46;2.50;;;0.75;;
7707;SDS011;3896;48.758;8.888;2023-02-21T14:29:43;2.20;;;1.17;;
7707;SDS011;3896;48.758;8.888;2023-02-21T14:34:36;1.17;;;0.80;;
7707;SDS011;3896;48.758;8.888;2023-02-21T14:39:44;15.20;;;2.13;;
7707;SDS011;3896;48.758;8.888;2023-02-21T15:04:08;1.50;;;0.98;;
7707;SDS011;3896;48.758;8.888;2023-02-21T15:06:38;2.97;;;0.80;;
7707;SDS011;3896;48.758;8.888;2023-02-21T15:09:16;1.58;;;0.70;;
7707;SDS011;3896;48.758;8.888;2023-02-21T15:11:43;1.13;;;0.80;;
7707;SDS011;3896;48.758;8.888;2023-02-21T15:14:11;0.80;;;0.60;;
7707;SDS011;3896;48.758;8.888;2023-02-21T15:16:45;0.63;;;0.63;;
7707;SDS011;3896;48.758;8.888;2023-02-21T15:19:30;3.67;;;0.80;;
7707;SDS011;3896;48.758;8.888;2023-02-21T15:22:14;1.77;;;0.90;;
7707;SDS011;3896;48.758;8.888;2023-02-21T15:24:56;2.03;;;0.70;;
7707;SDS011;3896;48.758;8.888;2023-02-21T15:30:17;3.70;;;1.83;;
7707;SDS011;3896;48.758;8.888;2023-02-21T15:32:52;4.47;;;1.67;;
7707;SDS011;3896;48.758;8.888;2023-02-21T15:35:32;5.05;;;1.98;;
7707;SDS011;3896;48.758;8.888;2023-02-21T15:38:05;3.58;;;1.42;;
7707;SDS011;3896;48.758;8.888;2023-02-21T15:40:35;2.60;;;1.58;;
7707;SDS011;3896;48.758;8.888;2023-02-21T15:43:01;11.00;;;2.60;;
7707;SDS011;3896;48.758;8.888;2023-02-21T15:45:32;3.30;;;1.60;;
7707;SDS011;3896;48.758;8.888;2023-02-21T15:48:07;4.07;;;2.23;;
7707;SDS011;3896;48.758;8.888;2023-02-21T15:50:37;4.80;;;1.90;;
7707;SDS011;3896;48.758;8.888;2023-02-21T15:53:16;3.97;;;1.93;;
7707;SDS011;3896;48.758;8.888;2023-02-21T15:55:42;5.53;;;2.43;;
7707;SDS011;3896;48.758;8.888;2023-02-21T15:58:20;7.80;;;2.37;;
7707;SDS011;3896;48.758;8.888;2023-02-21T16:01:09;3.40;;;2.13;;
7707;SDS011;3896;48.758;8.888;2023-02-21T16:03:36;3.33;;;2.17;;
7707;SDS011;3896;48.758;8.888;2023-02-21T16:09:03;5.37;;;2.10;;
7707;SDS011;3896;48.758;8.888;2023-02-21T16:11:47;4.73;;;2.20;;
7707;SDS011;3896;48.758;8.888;2023-02-21T16:14:21;7.10;;;2.63;;
7707;SDS011;3896;48.758;8.888;2023-02-21T16:19:38;3.70;;;3.20;;
7707;SDS011;3896;48.758;8.888;2023-02-21T16:22:18;11.43;;;4.57;;
7707;SDS011;3896;48.758;8.888;2023-02-21T16:27:36;5.50;;;3.50;;
7707;SDS011;3896;48.758;8.888;2023-02-21T16:30:14;4.03;;;3.63;;
7707;SDS011;3896;48.758;8.888;2023-02-21T16:32:43;5.43;;;3.33;;
7707;SDS011;3896;48.758;8.888;2023-02-21T16:35:17;3.60;;;2.83;;
7707;SDS011;3896;48.758;8.888;2023-02-21T16:37:48;5.20;;;2.40;;
7707;SDS011;3896;48.758;8.888;2023-02-21T16:40:20;10.77;;;2.57;;
7707;SDS011;3896;48.758;8.888;2023-02-21T16:42:49;5.33;;;2.10;;
7707;SDS011;3896;48.758;8.888;2023-02-21T16:45:15;2.53;;;2.20;;
7707;SDS011;3896;48.758;8.888;2023-02-21T16:47:42;4.73;;;2.17;;
7707;SDS011;3896;48.758;8.888;2023-02-21T16:50:26;6.67;;;2.20;;
7707;SDS011;3896;48.758;8.888;2023-02-21T16:52:54;7.13;;;1.83;;
7707;SDS011;3896;48.758;8.888;2023-02-21T16:55:20;9.87;;;2.47;;
7707;SDS011;3896;48.758;8.888;2023-02-21T16:57:49;6.37;;;2.30;;
7707;SDS011;3896;48.758;8.888;2023-02-21T17:00:18;10.07;;;2.60;;
7707;SDS011;3896;48.758;8.888;2023-02-21T17:02:45;7.50;;;2.30;;
7707;SDS011;3896;48.758;8.888;2023-02-21T17:05:15;12.00;;;2.43;;
7707;SDS011;3896;48.758;8.888;2023-02-21T17:07:41;3.33;;;2.20;;
7707;SDS011;3896;48.758;8.888;2023-02-21T17:10:07;9.93;;;2.57;;
7707;SDS011;3896;48.758;8.888;2023-02-21T17:12:34;7.93;;;2.63;;
7707;SDS011;3896;48.758;8.888;2023-02-21T17:14:59;5.73;;;2.37;;
7707;SDS011;3896;48.758;8.888;2023-02-21T17:17:25;2.90;;;1.83;;
7707;SDS011;3896;48.758;8.888;2023-02-21T17:19:50;4.43;;;2.13;;
7707;SDS011;3896;48.758;8.888;2023-02-21T17:22:16;5.27;;;2.27;;
7707;SDS011;3896;48.758;8.888;2023-02-21T17:24:41;2.93;;;2.43;;
7707;SDS011;3896;48.758;8.888;2023-02-21T17:27:07;5.13;;;2.40;;
7707;SDS011;3896;48.758;8.888;2023-02-21T17:29:33;3.10;;;2.37;;
7707;SDS011;3896;48.758;8.888;2023-02-21T17:31:58;2.93;;;2.33;;
7707;SDS011;3896;48.758;8.888;2023-02-21T17:34:30;3.10;;;2.33;;
7707;SDS011;3896;48.758;8.888;2023-02-21T17:37:00;3.53;;;2.50;;
7707;SDS011;3896;48.758;8.888;2023-02-21T17:39:27;8.63;;;2.90;;
7707;SDS011;3896;48.758;8.888;2023-02-21T17:41:52;14.23;;;3.07;;
7707;SDS011;3896;48.758;8.888;2023-02-21T17:44:18;7.03;;;3.17;;
7707;SDS011;3896;48.758;8.888;2023-02-21T17:46:45;8.83;;;3.13;;
7707;SDS011;3896;48.758;8.888;2023-02-21T17:49:16;11.60;;;3.47;;
7707;SDS011;3896;48.758;8.888;2023-02-21T17:51:44;8.80;;;3.27;;
7707;SDS011;3896;48.758;8.888;2023-02-21T17:54:11;6.33;;;3.37;;
7707;SDS011;3896;48.758;8.888;2023-02-21T17:56:37;6.57;;;2.80;;
7707;SDS011;3896;48.758;8.888;2023-02-21T17:59:02;14.03;;;4.03;;
7707;SDS011;3896;48.758;8.888;2023-02-21T18:01:28;5.53;;;2.67;;
7707;SDS011;3896;48.758;8.888;2023-02-21T18:03:55;4.43;;;3.37;;
7707;SDS011;3896;48.758;8.888;2023-02-21T18:06:20;6.97;;;3.13;;
7707;SDS011;3896;48.758;8.888;2023-02-21T18:08:46;7.17;;;3.67;;
7707;SDS011;3896;48.758;8.888;2023-02-21T18:11:13;6.10;;;2.87;;
7707;SDS011;3896;48.758;8.888;2023-02-21T18:13:40;5.37;;;2.87;;
7707;SDS011;3896;48.758;8.888;2023-02-21T18:16:06;7.37;;;3.07;;
7707;SDS011;3896;48.758;8.888;2023-02-21T18:18:32;3.93;;;2.90;;
7707;SDS011;3896;48.758;8.888;2023-02-21T18:20:58;10.07;;;3.40;;
7707;SDS011;3896;48.758;8.888;2023-02-21T18:23:26;9.10;;;3.70;;
7707;SDS011;3896;48.758;8.888;2023-02-21T18:25:53;8.60;;;3.40;;
7707;SDS011;3896;48.758;8.888;2023-02-21T18:28:19;17.00;;;3.83;;
7707;SDS011;3896;48.758;8.888;2023-02-21T18:30:44;12.20;;;3.73;;
7707;SDS011;3896;48.758;8.888;2023-02-21T18:33:11;6.30;;;3.60;;